sensor_id;sensor_type;location;lat;lon;timestamp;pressure;altitude;pressure_sealevel;temperature;humidity
61571;BME280;47463;49.884;10.010;2024-01-07T00:00:01;101470;;;4.2;84
61571;BME280;47463;49.884;10.010;2024-01-07T00:05:01;101470;;;4.2;84
61571;BME280;47463;49.884;10.010;2024-01-07T00:10:01;101470;;;4.2;84
61571;BME280;47463;49.884;10.010;2024-01-07T00:15:01;101480;;;4.2;84
61571;BME280;47463;49.884;10.010;2024-01-07T00:20:01;101470;;;4.2;84
61571;BME280;47463;49.884;10.010;2024-01-07T00:25:01;101480;;;4.2;84
61571;BME280;47463;49.884;10.010;2024-01-07T00:30:01;101480;;;4.2;84
61571;BME280;47463;49.884;10.010;2024-01-07T00:35:01;101480;;;4.2;84
61571;BME280;47463;49.884;10.010;2024-01-07T00:40:01;101490;;;4.1;85
61571;BME280;47463;49.884;10.010;2024-01-07T00:45:01;101490;;;4.1;85
61571;BME280;47463;49.884;10.010;2024-01-07T00:50:01;101490;;;4;85
61571;BME280;47463;49.884;10.010;2024-01-07T00:55:01;101490;;;4;85
61571;BME280;47463;49.884;10.010;2024-01-07T01:00:04;101500;;;4;85
61571;BME280;47463;49.884;10.010;2024-01-07T01:05:01;101490;;;4;85
61571;BME280;47463;49.884;10.010;2024-01-07T01:10:01;101490;;;4;85
61571;BME280;47463;49.884;10.010;2024-01-07T01:15:01;101490;;;3.9;85
61571;BME280;47463;49.884;10.010;2024-01-07T01:20:01;101510;;;3.9;85
61571;BME280;47463;49.884;10.010;2024-01-07T01:25:01;101500;;;3.9;85
61571;BME280;47463;49.884;10.010;2024-01-07T01:30:01;101520;;;3.9;85
61571;BME280;47463;49.884;10.010;2024-01-07T01:35:01;101510;;;3.9;85
61571;BME280;47463;49.884;10.010;2024-01-07T01:40:01;101510;;;3.9;85
61571;BME280;47463;49.884;10.010;2024-01-07T01:45:01;101520;;;3.9;85
61571;BME280;47463;49.884;10.010;2024-01-07T01:50:01;101520;;;3.9;85
61571;BME280;47463;49.884;10.010;2024-01-07T01:55:01;101520;;;3.9;85
61571;BME280;47463;49.884;10.010;2024-01-07T02:00:01;101530;;;3.9;85
61571;BME280;47463;49.884;10.010;2024-01-07T02:05:01;101520;;;3.9;85
61571;BME280;47463;49.884;10.010;2024-01-07T02:10:01;101530;;;3.9;84
61571;BME280;47463;49.884;10.010;2024-01-07T02:15:01;101530;;;3.9;84
61571;BME280;47463;49.884;10.010;2024-01-07T02:20:01;101530;;;3.9;84
61571;BME280;47463;49.884;10.010;2024-01-07T02:25:01;101530;;;3.8;84
61571;BME280;47463;49.884;10.010;2024-01-07T02:30:01;101540;;;3.8;84
61571;BME280;47463;49.884;10.010;2024-01-07T02:35:01;101530;;;3.8;84
61571;BME280;47463;49.884;10.010;2024-01-07T02:40:01;101540;;;3.8;83
61571;BME280;47463;49.884;10.010;2024-01-07T02:45:01;101540;;;3.7;83
61571;BME280;47463;49.884;10.010;2024-01-07T02:50:01;101550;;;3.6;83
61571;BME280;47463;49.884;10.010;2024-01-07T02:55:01;101550;;;3.6;82
61571;BME280;47463;49.884;10.010;2024-01-07T03:00:01;101550;;;3.5;82
61571;BME280;47463;49.884;10.010;2024-01-07T03:05:01;101560;;;3.6;81
61571;BME280;47463;49.884;10.010;2024-01-07T03:10:01;101550;;;3.5;81
61571;BME280;47463;49.884;10.010;2024-01-07T03:15:01;101550;;;3.5;81
61571;BME280;47463;49.884;10.010;2024-01-07T03:20:01;101560;;;3.4;81
61571;BME280;47463;49.884;10.010;2024-01-07T03:25:01;101570;;;3.4;81
61571;BME280;47463;49.884;10.010;2024-01-07T03:30:01;101560;;;3.4;81
61571;BME280;47463;49.884;10.010;2024-01-07T03:35:01;101570;;;3.3;81
61571;BME280;47463;49.884;10.010;2024-01-07T03:40:01;101570;;;3.3;81
61571;BME280;47463;49.884;10.010;2024-01-07T03:45:01;101570;;;3.3;81
61571;BME280;47463;49.884;10.010;2024-01-07T03:50:01;101580;;;3.2;81
61571;BME280;47463;49.884;10.010;2024-01-07T03:55:01;101570;;;3.2;81
61571;BME280;47463;49.884;10.010;2024-01-07T04:00:01;101590;;;3.2;81
61571;BME280;47463;49.884;10.010;2024-01-07T04:05:01;101590;;;3.1;81
61571;BME280;47463;49.884;10.010;2024-01-07T04:10:01;101590;;;3.1;81
61571;BME280;47463;49.884;10.010;2024-01-07T04:15:01;101590;;;3;81
61571;BME280;47463;49.884;10.010;2024-01-07T04:20:01;101590;;;3;81
61571;BME280;47463;49.884;10.010;2024-01-07T04:25:01;101600;;;3;81
61571;BME280;47463;49.884;10.010;2024-01-07T04:30:01;101600;;;2.9;81
61571;BME280;47463;49.884;10.010;2024-01-07T04:35:01;101610;;;2.8;81
61571;BME280;47463;49.884;10.010;2024-01-07T04:40:01;101620;;;2.8;81
61571;BME280;47463;49.884;10.010;2024-01-07T04:45:01;101620;;;2.8;81
61571;BME280;47463;49.884;10.010;2024-01-07T04:50:01;101630;;;2.8;81
61571;BME280;47463;49.884;10.010;2024-01-07T04:55:01;101640;;;2.8;81
61571;BME280;47463;49.884;10.010;2024-01-07T05:00:01;101630;;;2.7;81
61571;BME280;47463;49.884;10.010;2024-01-07T05:05:01;101650;;;2.7;81
61571;BME280;47463;49.884;10.010;2024-01-07T05:10:01;101660;;;2.6;81
61571;BME280;47463;49.884;10.010;2024-01-07T05:15:01;101660;;;2.6;81
61571;BME280;47463;49.884;10.010;2024-01-07T05:20:01;101660;;;2.5;81
61571;BME280;47463;49.884;10.010;2024-01-07T05:25:01;101670;;;2.5;81
61571;BME280;47463;49.884;10.010;2024-01-07T05:30:01;101680;;;2.5;82
61571;BME280;47463;49.884;10.010;2024-01-07T05:35:01;101690;;;2.4;82
61571;BME280;47463;49.884;10.010;2024-01-07T05:40:01;101680;;;2.3;82
61571;BME280;47463;49.884;10.010;2024-01-07T05:45:01;101690;;;2.3;83
61571;BME280;47463;49.884;10.010;2024-01-07T05:50:01;101700;;;2.2;83
61571;BME280;47463;49.884;10.010;2024-01-07T05:55:01;101710;;;2.1;83
61571;BME280;47463;49.884;10.010;2024-01-07T06:00:01;101720;;;2.1;83
61571;BME280;47463;49.884;10.010;2024-01-07T06:05:01;101730;;;2;83
61571;BME280;47463;49.884;10.010;2024-01-07T06:10:01;101740;;;2;83
61571;BME280;47463;49.884;10.010;2024-01-07T06:15:01;101750;;;1.9;83
61571;BME280;47463;49.884;10.010;2024-01-07T06:20:01;101750;;;1.8;84
61571;BME280;47463;49.884;10.010;2024-01-07T06:25:01;101760;;;1.8;83
61571;BME280;47463;49.884;10.010;2024-01-07T06:30:01;101760;;;1.7;83
61571;BME280;47463;49.884;10.010;2024-01-07T06:35:01;101760;;;1.6;83
61571;BME280;47463;49.884;10.010;2024-01-07T06:40:01;101770;;;1.5;83
61571;BME280;47463;49.884;10.010;2024-01-07T06:45:01;101790;;;1.4;83
61571;BME280;47463;49.884;10.010;2024-01-07T06:50:01;101800;;;1.2;83
61571;BME280;47463;49.884;10.010;2024-01-07T06:55:01;101810;;;1.2;83
61571;BME280;47463;49.884;10.010;2024-01-07T07:00:01;101820;;;1;82
61571;BME280;47463;49.884;10.010;2024-01-07T07:05:01;101830;;;1;81
61571;BME280;47463;49.884;10.010;2024-01-07T07:10:01;101830;;;1;81
61571;BME280;47463;49.884;10.010;2024-01-07T07:15:01;101840;;;1;80
61571;BME280;47463;49.884;10.010;2024-01-07T07:20:01;101840;;;1;80
61571;BME280;47463;49.884;10.010;2024-01-07T07:25:01;101850;;;0.9;80
61571;BME280;47463;49.884;10.010;2024-01-07T07:30:01;101850;;;0.9;80
61571;BME280;47463;49.884;10.010;2024-01-07T07:35:01;101860;;;0.9;80
61571;BME280;47463;49.884;10.010;2024-01-07T07:40:01;101870;;;0.9;80
61571;BME280;47463;49.884;10.010;2024-01-07T07:45:01;101870;;;0.9;80
61571;BME280;47463;49.884;10.010;2024-01-07T07:50:01;101880;;;0.9;80
61571;BME280;47463;49.884;10.010;2024-01-07T07:55:01;101890;;;0.9;80
61571;BME280;47463;49.884;10.010;2024-01-07T08:00:01;101900;;;0.9;80
61571;BME280;47463;49.884;10.010;2024-01-07T08:05:01;101890;;;0.9;80
61571;BME280;47463;49.884;10.010;2024-01-07T08:10:01;101900;;;0.9;80
61571;BME280;47463;49.884;10.010;2024-01-07T08:15:01;101900;;;0.8;80
61571;BME280;47463;49.884;10.010;2024-01-07T08:20:01;101910;;;0.8;80
61571;BME280;47463;49.884;10.010;2024-01-07T08:25:01;101920;;;0.8;80
61571;BME280;47463;49.884;10.010;2024-01-07T08:30:01;101940;;;0.7;80
61571;BME280;47463;49.884;10.010;2024-01-07T08:35:01;101930;;;0.7;80
61571;BME280;47463;49.884;10.010;2024-01-07T08:40:01;101930;;;0.7;80
61571;BME280;47463;49.884;10.010;2024-01-07T08:45:01;101940;;;0.7;80
61571;BME280;47463;49.884;10.010;2024-01-07T08:50:01;101940;;;0.7;79
61571;BME280;47463;49.884;10.010;2024-01-07T08:55:01;101960;;;0.7;79
61571;BME280;47463;49.884;10.010;2024-01-07T09:00:01;101960;;;0.8;79
61571;BME280;47463;49.884;10.010;2024-01-07T09:05:01;101960;;;0.8;79
61571;BME280;47463;49.884;10.010;2024-01-07T09:10:01;101960;;;0.8;79
61571;BME280;47463;49.884;10.010;2024-01-07T09:15:01;101960;;;0.8;78
61571;BME280;47463;49.884;10.010;2024-01-07T09:20:01;101960;;;0.8;78
61571;BME280;47463;49.884;10.010;2024-01-07T09:25:01;101970;;;0.9;78
61571;BME280;47463;49.884;10.010;2024-01-07T09:30:01;101970;;;0.9;78
61571;BME280;47463;49.884;10.010;2024-01-07T09:35:01;101990;;;0.9;78
61571;BME280;47463;49.884;10.010;2024-01-07T09:40:01;102000;;;0.8;78
61571;BME280;47463;49.884;10.010;2024-01-07T09:45:02;102000;;;0.6;78
61571;BME280;47463;49.884;10.010;2024-01-07T09:50:01;102000;;;0.6;78
61571;BME280;47463;49.884;10.010;2024-01-07T09:55:02;102010;;;0.6;78
61571;BME280;47463;49.884;10.010;2024-01-07T10:00:01;102020;;;0.4;78
61571;BME280;47463;49.884;10.010;2024-01-07T10:05:01;102030;;;0.2;78
61571;BME280;47463;49.884;10.010;2024-01-07T10:10:09;102030;;;0.2;79
61571;BME280;47463;49.884;10.010;2024-01-07T10:15:01;102030;;;0.2;79
61571;BME280;47463;49.884;10.010;2024-01-07T10:20:01;102030;;;0.2;79
61571;BME280;47463;49.884;10.010;2024-01-07T10:25:01;102030;;;0.1;79
61571;BME280;47463;49.884;10.010;2024-01-07T10:30:01;102030;;;0.1;79
61571;BME280;47463;49.884;10.010;2024-01-07T10:35:02;102040;;;0.1;79
61571;BME280;47463;49.884;10.010;2024-01-07T10:40:01;102040;;;-0.1;79
61571;BME280;47463;49.884;10.010;2024-01-07T10:45:01;102060;;;-0.1;79
61571;BME280;47463;49.884;10.010;2024-01-07T10:50:01;102060;;;-0.1;79
61571;BME280;47463;49.884;10.010;2024-01-07T10:55:02;102060;;;-0.1;79
61571;BME280;47463;49.884;10.010;2024-01-07T11:00:01;102070;;;-0.2;79
61571;BME280;47463;49.884;10.010;2024-01-07T11:05:03;102080;;;-0.1;79
61571;BME280;47463;49.884;10.010;2024-01-07T11:10:02;102080;;;-0.1;79
61571;BME280;47463;49.884;10.010;2024-01-07T11:15:01;102080;;;-0.2;79
61571;BME280;47463;49.884;10.010;2024-01-07T11:20:01;102080;;;-0.2;79
61571;BME280;47463;49.884;10.010;2024-01-07T11:25:01;102080;;;-0.4;79
61571;BME280;47463;49.884;10.010;2024-01-07T11:30:01;102080;;;-0.4;79
61571;BME280;47463;49.884;10.010;2024-01-07T11:35:01;102080;;;-0.4;79
61571;BME280;47463;49.884;10.010;2024-01-07T11:40:25;102080;;;-0.4;79
61571;BME280;47463;49.884;10.010;2024-01-07T11:45:06;102080;;;-0.4;79
61571;BME280;47463;49.884;10.010;2024-01-07T11:50:01;102080;;;-0.4;79
61571;BME280;47463;49.884;10.010;2024-01-07T11:55:01;102090;;;-0.4;79
61571;BME280;47463;49.884;10.010;2024-01-07T12:00:01;102080;;;-0.4;79
61571;BME280;47463;49.884;10.010;2024-01-07T12:05:01;102100;;;-0.5;79
61571;BME280;47463;49.884;10.010;2024-01-07T12:10:01;102080;;;-0.4;79
61571;BME280;47463;49.884;10.010;2024-01-07T12:15:01;102100;;;-0.5;79
61571;BME280;47463;49.884;10.010;2024-01-07T12:20:01;102090;;;-0.5;79
61571;BME280;47463;49.884;10.010;2024-01-07T12:25:01;102100;;;-0.5;78
61571;BME280;47463;49.884;10.010;2024-01-07T12:30:01;102100;;;-0.5;79
61571;BME280;47463;49.884;10.010;2024-01-07T12:35:01;102110;;;-0.5;79
61571;BME280;47463;49.884;10.010;2024-01-07T12:40:01;102100;;;-0.6;78
61571;BME280;47463;49.884;10.010;2024-01-07T12:45:01;102100;;;-0.6;79
61571;BME280;47463;49.884;10.010;2024-01-07T12:50:01;102110;;;-0.8;78
61571;BME280;47463;49.884;10.010;2024-01-07T12:55:01;102120;;;-0.9;78
61571;BME280;47463;49.884;10.010;2024-01-07T13:00:01;102120;;;-1;78
61571;BME280;47463;49.884;10.010;2024-01-07T13:05:01;102130;;;-1;78
61571;BME280;47463;49.884;10.010;2024-01-07T13:10:01;102130;;;-1.1;78
61571;BME280;47463;49.884;10.010;2024-01-07T13:15:01;102130;;;-1;78
61571;BME280;47463;49.884;10.010;2024-01-07T13:20:01;102130;;;-1.1;78
61571;BME280;47463;49.884;10.010;2024-01-07T13:25:01;102140;;;-1.1;78
61571;BME280;47463;49.884;10.010;2024-01-07T13:30:01;102140;;;-1.2;78
61571;BME280;47463;49.884;10.010;2024-01-07T13:35:01;102150;;;-1.2;77
61571;BME280;47463;49.884;10.010;2024-01-07T13:40:01;102150;;;-1.2;78
61571;BME280;47463;49.884;10.010;2024-01-07T13:45:01;102160;;;-1.2;77
61571;BME280;47463;49.884;10.010;2024-01-07T13:50:01;102160;;;-1.3;77
61571;BME280;47463;49.884;10.010;2024-01-07T13:55:01;102170;;;-1.4;77
61571;BME280;47463;49.884;10.010;2024-01-07T14:00:01;102180;;;-1.4;77
61571;BME280;47463;49.884;10.010;2024-01-07T14:05:01;102190;;;-1.5;77
61571;BME280;47463;49.884;10.010;2024-01-07T14:10:01;102190;;;-1.4;77
61571;BME280;47463;49.884;10.010;2024-01-07T14:15:01;102200;;;-1.5;77
61571;BME280;47463;49.884;10.010;2024-01-07T14:20:01;102200;;;-1.5;77
61571;BME280;47463;49.884;10.010;2024-01-07T14:25:01;102220;;;-1.5;77
61571;BME280;47463;49.884;10.010;2024-01-07T14:30:01;102210;;;-1.6;77
61571;BME280;47463;49.884;10.010;2024-01-07T14:35:01;102230;;;-1.6;76
61571;BME280;47463;49.884;10.010;2024-01-07T14:40:01;102230;;;-1.6;76
61571;BME280;47463;49.884;10.010;2024-01-07T14:45:01;102230;;;-1.7;76
61571;BME280;47463;49.884;10.010;2024-01-07T14:50:01;102250;;;-1.8;76
61571;BME280;47463;49.884;10.010;2024-01-07T14:55:01;102260;;;-1.8;76
61571;BME280;47463;49.884;10.010;2024-01-07T15:00:01;102260;;;-1.8;76
61571;BME280;47463;49.884;10.010;2024-01-07T15:05:01;102270;;;-1.9;75
61571;BME280;47463;49.884;10.010;2024-01-07T15:10:01;102290;;;-1.9;75
61571;BME280;47463;49.884;10.010;2024-01-07T15:15:01;102300;;;-2.1;75
61571;BME280;47463;49.884;10.010;2024-01-07T15:20:01;102300;;;-2.1;75
61571;BME280;47463;49.884;10.010;2024-01-07T15:25:01;102300;;;-2.1;75
61571;BME280;47463;49.884;10.010;2024-01-07T15:30:01;102310;;;-2.1;75
61571;BME280;47463;49.884;10.010;2024-01-07T15:35:01;102310;;;-2.1;75
61571;BME280;47463;49.884;10.010;2024-01-07T15:40:01;102320;;;-2.1;75
61571;BME280;47463;49.884;10.010;2024-01-07T15:45:01;102320;;;-2.2;75
61571;BME280;47463;49.884;10.010;2024-01-07T15:50:01;102340;;;-2.2;75
61571;BME280;47463;49.884;10.010;2024-01-07T15:55:01;102340;;;-2.2;74
61571;BME280;47463;49.884;10.010;2024-01-07T16:00:01;102350;;;-2.3;74
61571;BME280;47463;49.884;10.010;2024-01-07T16:05:01;102350;;;-2.3;74
61571;BME280;47463;49.884;10.010;2024-01-07T16:10:01;102360;;;-2.4;74
61571;BME280;47463;49.884;10.010;2024-01-07T16:15:01;102380;;;-2.5;74
61571;BME280;47463;49.884;10.010;2024-01-07T16:20:01;102400;;;-2.5;73
61571;BME280;47463;49.884;10.010;2024-01-07T16:25:01;102400;;;-2.5;74
61571;BME280;47463;49.884;10.010;2024-01-07T16:30:01;102409.99999999999;;;-2.5;74
61571;BME280;47463;49.884;10.010;2024-01-07T16:35:01;102420;;;-2.6;74
61571;BME280;47463;49.884;10.010;2024-01-07T16:40:01;102420;;;-2.6;74
61571;BME280;47463;49.884;10.010;2024-01-07T16:45:01;102420;;;-2.5;74
61571;BME280;47463;49.884;10.010;2024-01-07T16:50:01;102430;;;-2.5;74
61571;BME280;47463;49.884;10.010;2024-01-07T16:55:01;102450;;;-2.5;74
61571;BME280;47463;49.884;10.010;2024-01-07T17:00:01;102450;;;-2.5;73
61571;BME280;47463;49.884;10.010;2024-01-07T17:05:01;102450;;;-2.5;72
61571;BME280;47463;49.884;10.010;2024-01-07T17:10:01;102470;;;-2.5;72
61571;BME280;47463;49.884;10.010;2024-01-07T17:15:02;102470;;;-2.5;72
61571;BME280;47463;49.884;10.010;2024-01-07T17:20:01;102470;;;-2.6;72
61571;BME280;47463;49.884;10.010;2024-01-07T17:25:01;102490.00000000001;;;-2.6;72
61571;BME280;47463;49.884;10.010;2024-01-07T17:30:01;102490.00000000001;;;-2.6;73
61571;BME280;47463;49.884;10.010;2024-01-07T17:35:01;102500;;;-2.5;73
61571;BME280;47463;49.884;10.010;2024-01-07T17:40:01;102500;;;-2.6;73
61571;BME280;47463;49.884;10.010;2024-01-07T17:45:01;102509.99999999999;;;-2.6;73
61571;BME280;47463;49.884;10.010;2024-01-07T17:50:01;102509.99999999999;;;-2.6;73
61571;BME280;47463;49.884;10.010;2024-01-07T17:55:01;102509.99999999999;;;-2.6;73
61571;BME280;47463;49.884;10.010;2024-01-07T18:00:01;102530;;;-2.5;73
61571;BME280;47463;49.884;10.010;2024-01-07T18:05:01;102540.00000000001;;;-2.5;73
61571;BME280;47463;49.884;10.010;2024-01-07T18:10:01;102530;;;-2.5;73
61571;BME280;47463;49.884;10.010;2024-01-07T18:15:01;102530;;;-2.5;72
61571;BME280;47463;49.884;10.010;2024-01-07T18:20:01;102540.00000000001;;;-2.5;72
61571;BME280;47463;49.884;10.010;2024-01-07T18:25:01;102550;;;-2.5;72
61571;BME280;47463;49.884;10.010;2024-01-07T18:30:01;102559.99999999999;;;-2.5;71
61571;BME280;47463;49.884;10.010;2024-01-07T18:35:01;102559.99999999999;;;-2.4;72
61571;BME280;47463;49.884;10.010;2024-01-07T18:40:01;102559.99999999999;;;-2.5;71
61571;BME280;47463;49.884;10.010;2024-01-07T18:45:01;102559.99999999999;;;-2.5;72
61571;BME280;47463;49.884;10.010;2024-01-07T18:50:01;102559.99999999999;;;-2.5;71
61571;BME280;47463;49.884;10.010;2024-01-07T18:55:01;102570;;;-2.5;70
61571;BME280;47463;49.884;10.010;2024-01-07T19:00:01;102570;;;-2.5;70
61571;BME280;47463;49.884;10.010;2024-01-07T19:05:01;102580;;;-2.5;71
61571;BME280;47463;49.884;10.010;2024-01-07T19:10:01;102580;;;-2.4;71
61571;BME280;47463;49.884;10.010;2024-01-07T19:15:01;102590.00000000001;;;-2.5;70
61571;BME280;47463;49.884;10.010;2024-01-07T19:20:01;102590.00000000001;;;-2.5;70
61571;BME280;47463;49.884;10.010;2024-01-07T19:25:01;102600;;;-2.4;70
61571;BME280;47463;49.884;10.010;2024-01-07T19:30:01;102609.99999999999;;;-2.4;70
61571;BME280;47463;49.884;10.010;2024-01-07T19:35:01;102600;;;-2.4;69
61571;BME280;47463;49.884;10.010;2024-01-07T19:40:01;102609.99999999999;;;-2.4;70
61571;BME280;47463;49.884;10.010;2024-01-07T19:45:01;102609.99999999999;;;-2.4;70
61571;BME280;47463;49.884;10.010;2024-01-07T19:50:01;102609.99999999999;;;-2.4;70
61571;BME280;47463;49.884;10.010;2024-01-07T19:55:01;102620;;;-2.3;72
61571;BME280;47463;49.884;10.010;2024-01-07T20:00:01;102620;;;-2.3;71
61571;BME280;47463;49.884;10.010;2024-01-07T20:05:01;102620;;;-2.3;71
61571;BME280;47463;49.884;10.010;2024-01-07T20:10:01;102620;;;-2.2;71
61571;BME280;47463;49.884;10.010;2024-01-07T20:15:01;102620;;;-2.2;72
61571;BME280;47463;49.884;10.010;2024-01-07T20:20:01;102620;;;-2.2;72
61571;BME280;47463;49.884;10.010;2024-01-07T20:25:01;102640.00000000001;;;-2.2;71
61571;BME280;47463;49.884;10.010;2024-01-07T20:30:01;102630;;;-2.2;71
61571;BME280;47463;49.884;10.010;2024-01-07T20:35:01;102640.00000000001;;;-2.2;71
61571;BME280;47463;49.884;10.010;2024-01-07T20:40:01;102640.00000000001;;;-2.2;71
61571;BME280;47463;49.884;10.010;2024-01-07T20:45:01;102640.00000000001;;;-2.1;71
61571;BME280;47463;49.884;10.010;2024-01-07T20:50:01;102640.00000000001;;;-2.1;71
61571;BME280;47463;49.884;10.010;2024-01-07T21:20:01;102640.00000000001;;;-2.1;71
61571;BME280;47463;49.884;10.010;2024-01-07T21:25:01;102640.00000000001;;;-2;70
61571;BME280;47463;49.884;10.010;2024-01-07T21:30:01;102650;;;-2;70
61571;BME280;47463;49.884;10.010;2024-01-07T21:35:01;102659.99999999999;;;-2;70
61571;BME280;47463;49.884;10.010;2024-01-07T21:40:01;102650;;;-2;71
61571;BME280;47463;49.884;10.010;2024-01-07T21:45:01;102650;;;-2;71
61571;BME280;47463;49.884;10.010;2024-01-07T21:50:01;102650;;;-2;71
61571;BME280;47463;49.884;10.010;2024-01-07T21:55:01;102650;;;-2;71
61571;BME280;47463;49.884;10.010;2024-01-07T22:00:01;102659.99999999999;;;-2;71
61571;BME280;47463;49.884;10.010;2024-01-07T22:05:01;102659.99999999999;;;-2;71
61571;BME280;47463;49.884;10.010;2024-01-07T22:10:01;102650;;;-1.9;71
61571;BME280;47463;49.884;10.010;2024-01-07T22:15:01;102650;;;-1.9;71
61571;BME280;47463;49.884;10.010;2024-01-07T22:20:01;102659.99999999999;;;-1.9;71
61571;BME280;47463;49.884;10.010;2024-01-07T22:25:01;102659.99999999999;;;-1.9;72
61571;BME280;47463;49.884;10.010;2024-01-07T22:30:01;102670;;;-1.8;72
61571;BME280;47463;49.884;10.010;2024-01-07T22:35:01;102670;;;-1.8;72
61571;BME280;47463;49.884;10.010;2024-01-07T22:40:01;102670;;;-1.8;72
61571;BME280;47463;49.884;10.010;2024-01-07T22:45:01;102659.99999999999;;;-1.8;73
61571;BME280;47463;49.884;10.010;2024-01-07T22:50:01;102670;;;-1.8;73
61571;BME280;47463;49.884;10.010;2024-01-07T22:55:01;102670;;;-1.8;72
61571;BME280;47463;49.884;10.010;2024-01-07T23:00:01;102670;;;-1.8;72
61571;BME280;47463;49.884;10.010;2024-01-07T23:05:01;102670;;;-1.8;73
61571;BME280;47463;49.884;10.010;2024-01-07T23:10:01;102670;;;-1.8;72
61571;BME280;47463;49.884;10.010;2024-01-07T23:15:01;102680;;;-1.8;71
61571;BME280;47463;49.884;10.010;2024-01-07T23:20:01;102680;;;-1.8;71
61571;BME280;47463;49.884;10.010;2024-01-07T23:25:01;102680;;;-1.8;71
61571;BME280;47463;49.884;10.010;2024-01-07T23:30:01;102680;;;-1.8;71
61571;BME280;47463;49.884;10.010;2024-01-07T23:35:01;102690.00000000001;;;-1.8;72
61571;BME280;47463;49.884;10.010;2024-01-07T23:40:01;102690.00000000001;;;-1.8;72
61571;BME280;47463;49.884;10.010;2024-01-07T23:45:01;102680;;;-1.8;71
61571;BME280;47463;49.884;10.010;2024-01-07T23:50:01;102690.00000000001;;;-1.8;71
61571;BME280;47463;49.884;10.010;2024-01-07T23:55:01;102680;;;-1.8;71
